Naoussa — SVA5552 — position and weather

sailwx.info

Track history (hours):
 
Tides and Currents Weather Stations Pressure Air Temp Water Temp Dewpoint Dewpoint Depression Visibility Wind Speed Wind Dir Waves Ship Positions

Naoussa

Last reported at 2017-Sep-25 05:59 UTC. Time now 2017-Sep-25 06:31 UTC.
Position N 38°02' E 023°31'.

Length 78 m; draft 3.6 m.

Type: Tanker. MMSI: 241216000.

Date/timePositionNaut miles runAvg speedWind from/ knotsBaromVisibWave heightAir tempDewpointWater temp
2017-Sep-25 05:59N 38°02' E 023°31'0 0.0
2017-Sep-25 05:29N 38°02' E 023°31'0 0.0
2017-Sep-25 04:59N 38°02' E 023°31'0 0.0
2017-Sep-25 04:29N 38°02' E 023°31'0 0.0
2017-Sep-25 03:59N 38°02' E 023°31'0 0.0
2017-Sep-25 03:29N 38°02' E 023°31'0 0.0
2017-Sep-25 02:59N 38°02' E 023°31'0 0.0
2017-Sep-25 02:29N 38°02' E 023°31'0 0.0
2017-Sep-25 01:59N 38°02' E 023°31'0 0.0
2017-Sep-25 01:29N 38°02' E 023°31'0 0.0
2017-Sep-25 00:59N 38°02' E 023°31'0 0.1
2017-Sep-25 00:29N 38°02' E 023°31'0 0.1
2017-Sep-24 23:59N 38°02' E 023°31'0 0.0
2017-Sep-24 23:29N 38°02' E 023°31'0 0.0
2017-Sep-24 22:59N 38°02' E 023°31'0 0.0
2017-Sep-24 22:29N 38°02' E 023°31'0 0.0
2017-Sep-24 21:59N 38°02' E 023°31'0 0.1
2017-Sep-24 21:29N 38°02' E 023°31'0 0.0
2017-Sep-24 20:59N 38°02' E 023°31'0 0.1
2017-Sep-24 20:29N 38°02' E 023°31'0 0.0
2017-Sep-24 19:59N 38°02' E 023°31'0 0.0
2017-Sep-24 19:29N 38°02' E 023°31'0 0.0
2017-Sep-24 18:59N 38°02' E 023°31'0 0.0
2017-Sep-24 18:29N 38°02' E 023°31'0 0.0
2017-Sep-24 17:59N 38°02' E 023°31'0 0.0
2017-Sep-24 17:29N 38°02' E 023°31'0 0.1
2017-Sep-24 16:59N 38°02' E 023°31'0 0.1
2017-Sep-24 16:29N 38°02' E 023°31'0 0.0
2017-Sep-24 15:59N 38°02' E 023°31'0 0.0
2017-Sep-24 15:29N 38°02' E 023°31'0 0.1
2017-Sep-24 14:59N 38°02' E 023°31'0 0.0
2017-Sep-24 14:29N 38°02' E 023°31'0 0.0
2017-Sep-24 13:59N 38°02' E 023°31'0 0.0
2017-Sep-24 13:29N 38°02' E 023°31'0 0.0
2017-Sep-24 12:59N 38°02' E 023°31'0 0.0
2017-Sep-24 12:29N 38°02' E 023°31'0 0.0
2017-Sep-24 11:59N 38°02' E 023°31'0 0.0
2017-Sep-24 11:29N 38°02' E 023°31'0 0.1
2017-Sep-24 10:59N 38°02' E 023°31'0 0.0
2017-Sep-24 10:29N 38°02' E 023°31'0 0.0
2017-Sep-24 09:59N 38°02' E 023°31'0 0.0
2017-Sep-24 09:29N 38°02' E 023°31'0 0.0
2017-Sep-24 08:59N 38°02' E 023°31'0 0.0
2017-Sep-24 08:29N 38°02' E 023°31'0 0.1
2017-Sep-24 07:56N 38°02' E 023°31'0 0.1
2017-Sep-24 07:29N 38°02' E 023°31'0 0.1
2017-Sep-24 06:59N 38°02' E 023°31'1 2.8
2017-Sep-24 06:30N 38°01' E 023°32'4 7.9
2017-Sep-24 06:00N 37°57' E 023°34'2 4.2
2017-Sep-24 05:30N 37°55' E 023°35'1 2.0
2017-Sep-24 05:00N 37°55' E 023°34'0 0.0
2017-Sep-24 04:30N 37°55' E 023°34'0 0.0
2017-Sep-24 04:00N 37°55' E 023°34'0 0.0
2017-Sep-24 03:30N 37°55' E 023°34'0 0.0
2017-Sep-24 03:00N 37°55' E 023°34'0 0.0
2017-Sep-24 02:30N 37°55' E 023°34'0 0.0
2017-Sep-24 02:00N 37°55' E 023°34'0 0.0
2017-Sep-24 01:30N 37°55' E 023°34'0 0.6
2017-Sep-24 01:01N 37°55' E 023°34'5 9.0
2017-Sep-24 00:31N 37°52' E 023°38'5 9.6
2017-Sep-24 00:00N 37°47' E 023°41'5 9.4
2017-Sep-23 23:31N 37°43' E 023°43'5 8.6
2017-Sep-23 22:59N 37°40' E 023°48'5 9.5
2017-Sep-23 22:30N 37°39' E 023°53'9 9.6
2017-Sep-23 21:37N 37°38' E 024°04'61 1.4
2017-Sep-22 02:00N 37°27' E 025°19'0 0.0
2017-Sep-22 01:30N 37°27' E 025°19'0 0.0
2017-Sep-22 01:00N 37°27' E 025°19'0 0.0
2017-Sep-22 00:30N 37°27' E 025°19'0 0.0
2017-Sep-22 00:00N 37°27' E 025°19'0 0.0
2017-Sep-21 23:30N 37°27' E 025°19'0 0.0
2017-Sep-21 23:00N 37°27' E 025°19'0 0.0
2017-Sep-21 22:30N 37°27' E 025°19'0 0.2
2017-Sep-21 22:00N 37°27' E 025°19'4 7.1
2017-Sep-21 21:30N 37°28' E 025°14'5 9.5
2017-Sep-21 21:00N 37°29' E 025°09'5 9.6
2017-Sep-21 20:30N 37°30' E 025°03'510.1
2017-Sep-21 20:00N 37°32' E 024°57'5 9.8
2017-Sep-21 19:30N 37°32' E 024°51'5 9.9
2017-Sep-21 19:00N 37°32' E 024°44'43 9.6
2017-Sep-21 14:34N 37°37' E 023°51'1 9.4
2017-Sep-21 14:29N 37°38' E 023°50'5 9.3
2017-Sep-21 13:59N 37°39' E 023°45'4 8.9
2017-Sep-21 13:30N 37°42' E 023°40'5 9.5
2017-Sep-21 13:00N 37°46' E 023°38'5 9.3
2017-Sep-21 12:30N 37°51' E 023°36'5 9.1
2017-Sep-21 12:00N 37°55' E 023°36'4 7.1
2017-Sep-21 11:30N 37°58' E 023°33'4 8.2
2017-Sep-21 11:00N 38°02' E 023°32'0 0.1
2017-Sep-21 10:30N 38°02' E 023°32'0 0.0
2017-Sep-21 10:01N 38°02' E 023°32'0 0.0
2017-Sep-21 09:30N 38°02' E 023°32'0 0.0
2017-Sep-21 09:00N 38°02' E 023°32'0 0.0
2017-Sep-21 08:30N 38°02' E 023°32'0 0.0
2017-Sep-21 08:00N 38°02' E 023°32'0 0.0
2017-Sep-21 07:30N 38°02' E 023°32'0 0.0
2017-Sep-21 07:00N 38°02' E 023°32'0 0.0
2017-Sep-21 06:31N 38°02' E 023°32'0 0.0
2017-Sep-21 06:00N 38°02' E 023°32'0 0.2
2017-Sep-21 05:31N 38°02' E 023°32'0 0.1
2017-Sep-21 05:00N 38°02' E 023°32'0 0.0
2017-Sep-21 04:30N 38°02' E 023°32'0 0.1
2017-Sep-21 04:00N 38°02' E 023°32'0 0.0
2017-Sep-21 03:30N 38°02' E 023°32'0 0.1
2017-Sep-21 03:00N 38°02' E 023°32'0 0.1
2017-Sep-21 02:30N 38°02' E 023°32'0 0.0
2017-Sep-21 02:00N 38°02' E 023°32'0 0.0
2017-Sep-21 01:30N 38°02' E 023°32'0 0.1
2017-Sep-21 01:00N 38°02' E 023°32'0 0.0
2017-Sep-21 00:31N 38°02' E 023°32'1 2.2
2017-Sep-21 00:01N 38°02' E 023°31'0 0.5
2017-Sep-20 23:30N 38°02' E 023°31'0 0.0
2017-Sep-20 23:00N 38°02' E 023°31'0 0.0
2017-Sep-20 22:30N 38°02' E 023°31'0 0.0
2017-Sep-20 22:00N 38°02' E 023°31'0 0.0
2017-Sep-20 21:30N 38°02' E 023°31'0 0.0
2017-Sep-20 21:00N 38°02' E 023°31'0 0.0
2017-Sep-20 20:30N 38°02' E 023°31'0 0.0
2017-Sep-20 20:00N 38°02' E 023°31'0 0.0
2017-Sep-20 19:30N 38°02' E 023°31'0 0.0
2017-Sep-20 19:00N 38°02' E 023°31'0 0.0
2017-Sep-20 18:30N 38°02' E 023°31'0 0.0
2017-Sep-20 18:00N 38°02' E 023°31'0 0.0
2017-Sep-20 17:30N 38°02' E 023°31'0 0.0
2017-Sep-20 17:00N 38°02' E 023°31'0 0.0
2017-Sep-20 16:30N 38°02' E 023°31'0 0.0
2017-Sep-20 16:00N 38°02' E 023°31'0 0.0
2017-Sep-20 15:30N 38°02' E 023°31'0 0.0
2017-Sep-20 15:00N 38°02' E 023°31'0 0.0
2017-Sep-20 14:00N 38°02' E 023°31'0 0.0
2017-Sep-20 13:30N 38°02' E 023°31'0 0.0
2017-Sep-20 13:00N 38°02' E 023°31'0 0.4
2017-Sep-20 12:30N 38°02' E 023°30'1 1.1
2017-Sep-20 12:00N 38°01' E 023°31'0 0.0
2017-Sep-20 11:30N 38°01' E 023°31'0 0.0
2017-Sep-20 11:00N 38°01' E 023°31'0 0.0
2017-Sep-20 10:31N 38°01' E 023°31'0 0.0
2017-Sep-20 10:01N 38°01' E 023°31'0 0.2
2017-Sep-20 09:30N 38°01' E 023°31'0 0.6
2017-Sep-20 09:01N 38°02' E 023°31'3 6.3
2017-Sep-20 08:31N 37°59' E 023°33'4 7.4
2017-Sep-20 08:00N 37°56' E 023°36'3 5.0
2017-Sep-20 07:30N 37°54' E 023°37'4 7.9
2017-Sep-20 07:00N 37°51' E 023°39'5 9.5
2017-Sep-20 06:30N 37°46' E 023°42'5 9.5
2017-Sep-20 06:00N 37°42' E 023°45'5 9.3
2017-Sep-20 05:30N 37°39' E 023°49'46 9.3
2017-Sep-20 00:32N 37°23' E 024°44'0 9.6
2017-Sep-20 00:30N 37°23' E 024°44'5 9.7
2017-Sep-20 00:01N 37°21' E 024°50'5 9.4
2017-Sep-19 23:30N 37°20' E 024°55'5 9.6
2017-Sep-19 23:00N 37°19' E 025°01'5 9.2
2017-Sep-19 22:30N 37°19' E 025°07'5 9.5
2017-Sep-19 22:00N 37°18' E 025°13'5 9.8
2017-Sep-19 21:30N 37°16' E 025°19'510.1
2017-Sep-19 21:00N 37°15' E 025°25'510.2
2017-Sep-19 20:30N 37°14' E 025°31'6 8.7
2017-Sep-19 19:48N 37°10' E 025°37'3 8.7
2017-Sep-19 19:30N 37°07' E 025°38'  
2017-Sep-16 17:30N 37°04' E 025°39'510.0
2017-Sep-16 17:00N 37°08' E 025°37'5 9.5
2017-Sep-16 16:26N 37°13' E 025°33'4 8.7
2017-Sep-16 16:00N 37°15' E 025°29'4 8.8
2017-Sep-16 15:30N 37°18' E 025°25'5 9.1
2017-Sep-16 15:00N 37°21' E 025°21'4 8.7
2017-Sep-16 14:30N 37°24' E 025°17'3 6.2
2017-Sep-16 14:00N 37°27' E 025°19'1 1.1
2017-Sep-16 13:30N 37°26' E 025°19'0 0.0
2017-Sep-16 13:00N 37°26' E 025°19'0 0.0
2017-Sep-16 12:30N 37°26' E 025°19'0 0.0
2017-Sep-16 12:00N 37°26' E 025°19'0 0.0
2017-Sep-16 11:30N 37°26' E 025°19'0 0.0
2017-Sep-16 11:00N 37°26' E 025°19'0 0.0
2017-Sep-16 10:30N 37°26' E 025°19'0 0.0
2017-Sep-16 10:00N 37°26' E 025°19'0 0.0
2017-Sep-16 09:30N 37°26' E 025°19'0 0.0
2017-Sep-16 09:00N 37°26' E 025°19'0 0.0
2017-Sep-16 08:30N 37°26' E 025°19'0 0.0
2017-Sep-16 08:00N 37°26' E 025°19'0 0.0
2017-Sep-16 07:30N 37°26' E 025°19'0 0.0
2017-Sep-16 07:00N 37°26' E 025°19'0 0.0
2017-Sep-16 06:30N 37°26' E 025°19'0 0.0
2017-Sep-16 06:00N 37°26' E 025°19'0 0.0
2017-Sep-16 05:30N 37°26' E 025°19'0 0.0
2017-Sep-16 05:00N 37°26' E 025°19'0 0.1
2017-Sep-16 04:30N 37°26' E 025°19'0 0.7
2017-Sep-16 04:00N 37°26' E 025°19'0 0.5
2017-Sep-16 03:30N 37°27' E 025°19'0 0.0
2017-Sep-16 03:00N 37°27' E 025°19'0 0.0
2017-Sep-16 02:30N 37°27' E 025°19'0 0.0
2017-Sep-16 02:00N 37°27' E 025°19'0 0.0
2017-Sep-16 01:30N 37°27' E 025°19'0 0.0
2017-Sep-16 01:00N 37°27' E 025°19'0 0.0
2017-Sep-16 00:30N 37°27' E 025°19'0 0.0
2017-Sep-16 00:00N 37°27' E 025°19'0 0.0
2017-Sep-15 23:30N 37°27' E 025°19'0 0.0
2017-Sep-15 23:00N 37°27' E 025°19'0 0.0
2017-Sep-15 22:29N 37°27' E 025°19'0 0.0
2017-Sep-15 22:00N 37°27' E 025°19'0 0.0
2017-Sep-15 21:30N 37°27' E 025°19'0 0.0
2017-Sep-15 21:00N 37°27' E 025°19'0 0.0
2017-Sep-15 20:30N 37°27' E 025°19'0 0.0
2017-Sep-15 20:00N 37°27' E 025°19'0 0.0
2017-Sep-15 19:30N 37°27' E 025°19'1 2.4
2017-Sep-15 19:00N 37°27' E 025°18'4 8.0
2017-Sep-15 18:30N 37°28' E 025°13'5 9.4
2017-Sep-15 18:00N 37°29' E 025°07'7 9.4
2017-Sep-15 17:17N 37°31' E 024°59'3 9.3
2017-Sep-15 17:00N 37°32' E 024°56'4 9.0
2017-Sep-15 16:30N 37°32' E 024°50'5 9.4
2017-Sep-15 16:00N 37°31' E 024°44'42 9.3
2017-Sep-15 11:29N 37°37' E 023°52'4 9.2
2017-Sep-15 11:00N 37°38' E 023°46'4 8.6
2017-Sep-15 10:30N 37°40' E 023°42'5 9.3
2017-Sep-15 10:00N 37°45' E 023°39'5 9.2
2017-Sep-15 09:30N 37°49' E 023°37'4 8.8
2017-Sep-15 09:00N 37°53' E 023°36'4 7.8
2017-Sep-15 08:30N 37°57' E 023°35'3 6.2
2017-Sep-15 08:00N 37°60' E 023°33'2 4.3
2017-Sep-15 07:28N 38°02' E 023°32'0 0.1
2017-Sep-15 06:58N 38°02' E 023°31'0 0.0
2017-Sep-15 06:29N 38°02' E 023°31'  
Track history (hours):
 
Tides and Currents Weather Stations Pressure Air Temp Water Temp Dewpoint Dewpoint Depression Visibility Wind Speed Wind Dir Waves Ship Positions

Naoussa

Last reported at 2017-Sep-25 05:59 UTC. Time now 2017-Sep-25 06:31 UTC.
Position N 38°02' E 023°31'.

Length 78 m; draft 3.6 m.

Type: Tanker. MMSI: 241216000.

Date/timePositionNaut miles runAvg speedWind from/ knotsBaromVisibWave heightAir tempDewpointWater temp
2017-Sep-25 05:59N 38°02' E 023°31'0 0.0
2017-Sep-25 05:29N 38°02' E 023°31'0 0.0
2017-Sep-25 04:59N 38°02' E 023°31'0 0.0
2017-Sep-25 04:29N 38°02' E 023°31'0 0.0
2017-Sep-25 03:59N 38°02' E 023°31'0 0.0
2017-Sep-25 03:29N 38°02' E 023°31'0 0.0
2017-Sep-25 02:59N 38°02' E 023°31'0 0.0
2017-Sep-25 02:29N 38°02' E 023°31'0 0.0
2017-Sep-25 01:59N 38°02' E 023°31'0 0.0
2017-Sep-25 01:29N 38°02' E 023°31'0 0.0
2017-Sep-25 00:59N 38°02' E 023°31'0 0.1
2017-Sep-25 00:29N 38°02' E 023°31'0 0.1
2017-Sep-24 23:59N 38°02' E 023°31'0 0.0
2017-Sep-24 23:29N 38°02' E 023°31'0 0.0
2017-Sep-24 22:59N 38°02' E 023°31'0 0.0
2017-Sep-24 22:29N 38°02' E 023°31'0 0.0
2017-Sep-24 21:59N 38°02' E 023°31'0 0.1
2017-Sep-24 21:29N 38°02' E 023°31'0 0.0
2017-Sep-24 20:59N 38°02' E 023°31'0 0.1
2017-Sep-24 20:29N 38°02' E 023°31'0 0.0
2017-Sep-24 19:59N 38°02' E 023°31'0 0.0
2017-Sep-24 19:29N 38°02' E 023°31'0 0.0
2017-Sep-24 18:59N 38°02' E 023°31'0 0.0
2017-Sep-24 18:29N 38°02' E 023°31'0 0.0
2017-Sep-24 17:59N 38°02' E 023°31'0 0.0
2017-Sep-24 17:29N 38°02' E 023°31'0 0.1
2017-Sep-24 16:59N 38°02' E 023°31'0 0.1
2017-Sep-24 16:29N 38°02' E 023°31'0 0.0
2017-Sep-24 15:59N 38°02' E 023°31'0 0.0
2017-Sep-24 15:29N 38°02' E 023°31'0 0.1
2017-Sep-24 14:59N 38°02' E 023°31'0 0.0
2017-Sep-24 14:29N 38°02' E 023°31'0 0.0
2017-Sep-24 13:59N 38°02' E 023°31'0 0.0
2017-Sep-24 13:29N 38°02' E 023°31'0 0.0
2017-Sep-24 12:59N 38°02' E 023°31'0 0.0
2017-Sep-24 12:29N 38°02' E 023°31'0 0.0
2017-Sep-24 11:59N 38°02' E 023°31'0 0.0
2017-Sep-24 11:29N 38°02' E 023°31'0 0.1
2017-Sep-24 10:59N 38°02' E 023°31'0 0.0
2017-Sep-24 10:29N 38°02' E 023°31'0 0.0
2017-Sep-24 09:59N 38°02' E 023°31'0 0.0
2017-Sep-24 09:29N 38°02' E 023°31'0 0.0
2017-Sep-24 08:59N 38°02' E 023°31'0 0.0
2017-Sep-24 08:29N 38°02' E 023°31'0 0.1
2017-Sep-24 07:56N 38°02' E 023°31'0 0.1
2017-Sep-24 07:29N 38°02' E 023°31'0 0.1
2017-Sep-24 06:59N 38°02' E 023°31'1 2.8
2017-Sep-24 06:30N 38°01' E 023°32'4 7.9
2017-Sep-24 06:00N 37°57' E 023°34'2 4.2
2017-Sep-24 05:30N 37°55' E 023°35'1 2.0
2017-Sep-24 05:00N 37°55' E 023°34'0 0.0
2017-Sep-24 04:30N 37°55' E 023°34'0 0.0
2017-Sep-24 04:00N 37°55' E 023°34'0 0.0
2017-Sep-24 03:30N 37°55' E 023°34'0 0.0
2017-Sep-24 03:00N 37°55' E 023°34'0 0.0
2017-Sep-24 02:30N 37°55' E 023°34'0 0.0
2017-Sep-24 02:00N 37°55' E 023°34'0 0.0
2017-Sep-24 01:30N 37°55' E 023°34'0 0.6
2017-Sep-24 01:01N 37°55' E 023°34'5 9.0
2017-Sep-24 00:31N 37°52' E 023°38'5 9.6
2017-Sep-24 00:00N 37°47' E 023°41'5 9.4
2017-Sep-23 23:31N 37°43' E 023°43'5 8.6
2017-Sep-23 22:59N 37°40' E 023°48'5 9.5
2017-Sep-23 22:30N 37°39' E 023°53'9 9.6
2017-Sep-23 21:37N 37°38' E 024°04'61 1.4
2017-Sep-22 02:00N 37°27' E 025°19'0 0.0
2017-Sep-22 01:30N 37°27' E 025°19'0 0.0
2017-Sep-22 01:00N 37°27' E 025°19'0 0.0
2017-Sep-22 00:30N 37°27' E 025°19'0 0.0
2017-Sep-22 00:00N 37°27' E 025°19'0 0.0
2017-Sep-21 23:30N 37°27' E 025°19'0 0.0
2017-Sep-21 23:00N 37°27' E 025°19'0 0.0
2017-Sep-21 22:30N 37°27' E 025°19'0 0.2
2017-Sep-21 22:00N 37°27' E 025°19'4 7.1
2017-Sep-21 21:30N 37°28' E 025°14'5 9.5
2017-Sep-21 21:00N 37°29' E 025°09'5 9.6
2017-Sep-21 20:30N 37°30' E 025°03'510.1
2017-Sep-21 20:00N 37°32' E 024°57'5 9.8
2017-Sep-21 19:30N 37°32' E 024°51'5 9.9
2017-Sep-21 19:00N 37°32' E 024°44'43 9.6
2017-Sep-21 14:34N 37°37' E 023°51'1 9.4
2017-Sep-21 14:29N 37°38' E 023°50'5 9.3
2017-Sep-21 13:59N 37°39' E 023°45'4 8.9
2017-Sep-21 13:30N 37°42' E 023°40'5 9.5
2017-Sep-21 13:00N 37°46' E 023°38'5 9.3
2017-Sep-21 12:30N 37°51' E 023°36'5 9.1
2017-Sep-21 12:00N 37°55' E 023°36'4 7.1
2017-Sep-21 11:30N 37°58' E 023°33'4 8.2
2017-Sep-21 11:00N 38°02' E 023°32'0 0.1
2017-Sep-21 10:30N 38°02' E 023°32'0 0.0
2017-Sep-21 10:01N 38°02' E 023°32'0 0.0
2017-Sep-21 09:30N 38°02' E 023°32'0 0.0
2017-Sep-21 09:00N 38°02' E 023°32'0 0.0
2017-Sep-21 08:30N 38°02' E 023°32'0 0.0
2017-Sep-21 08:00N 38°02' E 023°32'0 0.0
2017-Sep-21 07:30N 38°02' E 023°32'0 0.0
2017-Sep-21 07:00N 38°02' E 023°32'0 0.0
2017-Sep-21 06:31N 38°02' E 023°32'0 0.0
2017-Sep-21 06:00N 38°02' E 023°32'0 0.2
2017-Sep-21 05:31N 38°02' E 023°32'0 0.1
2017-Sep-21 05:00N 38°02' E 023°32'0 0.0
2017-Sep-21 04:30N 38°02' E 023°32'0 0.1
2017-Sep-21 04:00N 38°02' E 023°32'0 0.0
2017-Sep-21 03:30N 38°02' E 023°32'0 0.1
2017-Sep-21 03:00N 38°02' E 023°32'0 0.1
2017-Sep-21 02:30N 38°02' E 023°32'0 0.0
2017-Sep-21 02:00N 38°02' E 023°32'0 0.0
2017-Sep-21 01:30N 38°02' E 023°32'0 0.1
2017-Sep-21 01:00N 38°02' E 023°32'0 0.0
2017-Sep-21 00:31N 38°02' E 023°32'1 2.2
2017-Sep-21 00:01N 38°02' E 023°31'0 0.5
2017-Sep-20 23:30N 38°02' E 023°31'0 0.0
2017-Sep-20 23:00N 38°02' E 023°31'0 0.0
2017-Sep-20 22:30N 38°02' E 023°31'0 0.0
2017-Sep-20 22:00N 38°02' E 023°31'0 0.0
2017-Sep-20 21:30N 38°02' E 023°31'0 0.0
2017-Sep-20 21:00N 38°02' E 023°31'0 0.0
2017-Sep-20 20:30N 38°02' E 023°31'0 0.0
2017-Sep-20 20:00N 38°02' E 023°31'0 0.0
2017-Sep-20 19:30N 38°02' E 023°31'0 0.0
2017-Sep-20 19:00N 38°02' E 023°31'0 0.0
2017-Sep-20 18:30N 38°02' E 023°31'0 0.0
2017-Sep-20 18:00N 38°02' E 023°31'0 0.0
2017-Sep-20 17:30N 38°02' E 023°31'0 0.0
2017-Sep-20 17:00N 38°02' E 023°31'0 0.0
2017-Sep-20 16:30N 38°02' E 023°31'0 0.0
2017-Sep-20 16:00N 38°02' E 023°31'0 0.0
2017-Sep-20 15:30N 38°02' E 023°31'0 0.0
2017-Sep-20 15:00N 38°02' E 023°31'0 0.0
2017-Sep-20 14:00N 38°02' E 023°31'0 0.0
2017-Sep-20 13:30N 38°02' E 023°31'0 0.0
2017-Sep-20 13:00N 38°02' E 023°31'0 0.4
2017-Sep-20 12:30N 38°02' E 023°30'1 1.1
2017-Sep-20 12:00N 38°01' E 023°31'0 0.0
2017-Sep-20 11:30N 38°01' E 023°31'0 0.0
2017-Sep-20 11:00N 38°01' E 023°31'0 0.0
2017-Sep-20 10:31N 38°01' E 023°31'0 0.0
2017-Sep-20 10:01N 38°01' E 023°31'0 0.2
2017-Sep-20 09:30N 38°01' E 023°31'0 0.6
2017-Sep-20 09:01N 38°02' E 023°31'3 6.3
2017-Sep-20 08:31N 37°59' E 023°33'4 7.4
2017-Sep-20 08:00N 37°56' E 023°36'3 5.0
2017-Sep-20 07:30N 37°54' E 023°37'4 7.9
2017-Sep-20 07:00N 37°51' E 023°39'5 9.5
2017-Sep-20 06:30N 37°46' E 023°42'5 9.5
2017-Sep-20 06:00N 37°42' E 023°45'5 9.3
2017-Sep-20 05:30N 37°39' E 023°49'46 9.3
2017-Sep-20 00:32N 37°23' E 024°44'0 9.6
2017-Sep-20 00:30N 37°23' E 024°44'5 9.7
2017-Sep-20 00:01N 37°21' E 024°50'5 9.4
2017-Sep-19 23:30N 37°20' E 024°55'5 9.6
2017-Sep-19 23:00N 37°19' E 025°01'5 9.2
2017-Sep-19 22:30N 37°19' E 025°07'5 9.5
2017-Sep-19 22:00N 37°18' E 025°13'5 9.8
2017-Sep-19 21:30N 37°16' E 025°19'510.1
2017-Sep-19 21:00N 37°15' E 025°25'510.2
2017-Sep-19 20:30N 37°14' E 025°31'6 8.7
2017-Sep-19 19:48N 37°10' E 025°37'3 8.7
2017-Sep-19 19:30N 37°07' E 025°38'  
2017-Sep-16 17:30N 37°04' E 025°39'510.0
2017-Sep-16 17:00N 37°08' E 025°37'5 9.5
2017-Sep-16 16:26N 37°13' E 025°33'4 8.7
2017-Sep-16 16:00N 37°15' E 025°29'4 8.8
2017-Sep-16 15:30N 37°18' E 025°25'5 9.1
2017-Sep-16 15:00N 37°21' E 025°21'4 8.7
2017-Sep-16 14:30N 37°24' E 025°17'3 6.2
2017-Sep-16 14:00N 37°27' E 025°19'1 1.1
2017-Sep-16 13:30N 37°26' E 025°19'0 0.0
2017-Sep-16 13:00N 37°26' E 025°19'0 0.0
2017-Sep-16 12:30N 37°26' E 025°19'0 0.0
2017-Sep-16 12:00N 37°26' E 025°19'0 0.0
2017-Sep-16 11:30N 37°26' E 025°19'0 0.0
2017-Sep-16 11:00N 37°26' E 025°19'0 0.0
2017-Sep-16 10:30N 37°26' E 025°19'0 0.0
2017-Sep-16 10:00N 37°26' E 025°19'0 0.0
2017-Sep-16 09:30N 37°26' E 025°19'0 0.0
2017-Sep-16 09:00N 37°26' E 025°19'0 0.0
2017-Sep-16 08:30N 37°26' E 025°19'0 0.0
2017-Sep-16 08:00N 37°26' E 025°19'0 0.0
2017-Sep-16 07:30N 37°26' E 025°19'0 0.0
2017-Sep-16 07:00N 37°26' E 025°19'0 0.0
2017-Sep-16 06:30N 37°26' E 025°19'0 0.0
2017-Sep-16 06:00N 37°26' E 025°19'0 0.0
2017-Sep-16 05:30N 37°26' E 025°19'0 0.0
2017-Sep-16 05:00N 37°26' E 025°19'0 0.1
2017-Sep-16 04:30N 37°26' E 025°19'0 0.7
2017-Sep-16 04:00N 37°26' E 025°19'0 0.5
2017-Sep-16 03:30N 37°27' E 025°19'0 0.0
2017-Sep-16 03:00N 37°27' E 025°19'0 0.0
2017-Sep-16 02:30N 37°27' E 025°19'0 0.0
2017-Sep-16 02:00N 37°27' E 025°19'0 0.0
2017-Sep-16 01:30N 37°27' E 025°19'0 0.0
2017-Sep-16 01:00N 37°27' E 025°19'0 0.0
2017-Sep-16 00:30N 37°27' E 025°19'0 0.0
2017-Sep-16 00:00N 37°27' E 025°19'0 0.0
2017-Sep-15 23:30N 37°27' E 025°19'0 0.0
2017-Sep-15 23:00N 37°27' E 025°19'0 0.0
2017-Sep-15 22:29N 37°27' E 025°19'0 0.0
2017-Sep-15 22:00N 37°27' E 025°19'0 0.0
2017-Sep-15 21:30N 37°27' E 025°19'0 0.0
2017-Sep-15 21:00N 37°27' E 025°19'0 0.0
2017-Sep-15 20:30N 37°27' E 025°19'0 0.0
2017-Sep-15 20:00N 37°27' E 025°19'0 0.0
2017-Sep-15 19:30N 37°27' E 025°19'1 2.4
2017-Sep-15 19:00N 37°27' E 025°18'4 8.0
2017-Sep-15 18:30N 37°28' E 025°13'5 9.4
2017-Sep-15 18:00N 37°29' E 025°07'7 9.4
2017-Sep-15 17:17N 37°31' E 024°59'3 9.3
2017-Sep-15 17:00N 37°32' E 024°56'4 9.0
2017-Sep-15 16:30N 37°32' E 024°50'5 9.4
2017-Sep-15 16:00N 37°31' E 024°44'42 9.3
2017-Sep-15 11:29N 37°37' E 023°52'4 9.2
2017-Sep-15 11:00N 37°38' E 023°46'4 8.6
2017-Sep-15 10:30N 37°40' E 023°42'5 9.3
2017-Sep-15 10:00N 37°45' E 023°39'5 9.2
2017-Sep-15 09:30N 37°49' E 023°37'4 8.8
2017-Sep-15 09:00N 37°53' E 023°36'4 7.8
2017-Sep-15 08:30N 37°57' E 023°35'3 6.2
2017-Sep-15 08:00N 37°60' E 023°33'2 4.3
2017-Sep-15 07:28N 38°02' E 023°32'0 0.1
2017-Sep-15 06:58N 38°02' E 023°31'0 0.0
2017-Sep-15 06:29N 38°02' E 023°31'  

Dump ship's entire track history